createdAt,value
2018-05-13T00:00:57.323Z,89.00
2018-05-13T00:03:23.668Z,88.90
2018-05-13T00:05:50.051Z,89.10
2018-05-13T00:08:16.504Z,89.50
2018-05-13T00:10:42.895Z,89.90
2018-05-13T00:13:09.176Z,90.10
2018-05-13T00:15:35.518Z,90.10
2018-05-13T00:18:01.878Z,90.00
2018-05-13T00:20:28.222Z,90.10
2018-05-13T00:22:54.589Z,90.60
2018-05-13T00:25:21.997Z,89.50
2018-05-13T00:27:48.432Z,89.50
2018-05-13T00:30:14.797Z,89.80
2018-05-13T00:32:41.116Z,90.40
2018-05-13T00:35:07.413Z,90.30
2018-05-13T00:37:33.847Z,90.10
2018-05-13T00:40:00.146Z,89.80
2018-05-13T00:42:26.527Z,89.20
2018-05-13T00:44:52.907Z,89.20
2018-05-13T00:47:19.981Z,90.00
2018-05-13T00:49:47.104Z,90.10
2018-05-13T00:52:13.493Z,90.10
2018-05-13T00:54:48.975Z,90.20
2018-05-13T00:57:15.393Z,90.20
2018-05-13T00:59:41.735Z,90.20
2018-05-13T01:02:08.176Z,90.70
2018-05-13T01:04:34.540Z,90.80
2018-05-13T01:07:00.812Z,89.90
2018-05-13T01:09:27.173Z,90.10
2018-05-13T01:11:53.561Z,89.30
2018-05-13T01:14:20.654Z,89.00
2018-05-13T01:16:46.987Z,89.00
2018-05-13T01:19:13.322Z,89.00
2018-05-13T01:21:39.703Z,89.60
2018-05-13T01:24:06.057Z,89.40
2018-05-13T01:26:32.369Z,89.50
2018-05-13T01:28:58.690Z,90.00
2018-05-13T01:31:24.992Z,90.70
2018-05-13T01:33:51.275Z,90.10
2018-05-13T01:36:17.614Z,89.50
2018-05-13T01:38:43.946Z,88.80
2018-05-13T01:41:10.279Z,89.20
2018-05-13T01:43:37.369Z,90.00
2018-05-13T01:46:03.867Z,90.00
2018-05-13T01:48:30.350Z,90.10
2018-05-13T01:50:56.717Z,90.20
2018-05-13T01:53:23.032Z,90.10
2018-05-13T01:55:50.158Z,90.30
2018-05-13T01:58:16.447Z,90.20
2018-05-13T02:00:42.958Z,90.20
2018-05-13T02:03:09.281Z,90.20
2018-05-13T02:05:35.630Z,90.30
2018-05-13T02:08:02.004Z,90.40
2018-05-13T02:10:29.064Z,90.60
2018-05-13T02:12:56.114Z,90.70
2018-05-13T02:15:22.447Z,90.70
2018-05-13T02:17:48.717Z,90.70
2018-05-13T02:20:15.764Z,90.60
2018-05-13T02:22:42.089Z,91.00
2018-05-13T02:25:08.408Z,90.40
2018-05-13T02:27:34.716Z,90.40
2018-05-13T02:30:01.903Z,90.30
2018-05-13T02:32:28.352Z,90.30
2018-05-13T02:34:54.674Z,90.20
2018-05-13T02:37:21.003Z,90.30
2018-05-13T02:39:48.077Z,90.40
2018-05-13T02:42:14.374Z,90.40
2018-05-13T02:44:40.769Z,90.70
2018-05-13T02:47:07.077Z,91.00
2018-05-13T02:49:33.451Z,90.10
2018-05-13T02:51:59.751Z,90.40
2018-05-13T02:54:26.095Z,88.90
2018-05-13T02:56:52.431Z,89.20
2018-05-13T02:59:18.799Z,89.30
2018-05-13T03:01:45.103Z,89.70
2018-05-13T03:04:11.428Z,89.60
2018-05-13T03:06:37.860Z,89.90
2018-05-13T03:09:04.238Z,90.00
2018-05-13T03:11:30.561Z,89.80
2018-05-13T03:13:56.922Z,89.80
2018-05-13T03:16:23.278Z,90.00
2018-05-13T03:18:49.700Z,90.10
2018-05-13T03:21:16.056Z,90.20
2018-05-13T03:23:42.393Z,90.20
2018-05-13T03:26:08.725Z,90.10
2018-05-13T03:28:35.164Z,90.10
2018-05-13T03:31:01.459Z,90.30
2018-05-13T03:33:27.767Z,90.30
2018-05-13T03:35:54.085Z,90.10
2018-05-13T03:38:20.387Z,90.20
2018-05-13T03:40:46.691Z,90.00
2018-05-13T03:43:13.101Z,90.40
2018-05-13T03:45:40.165Z,90.50
2018-05-13T03:48:07.204Z,90.50
2018-05-13T03:50:33.481Z,90.50
2018-05-13T03:52:59.858Z,90.50
2018-05-13T03:55:26.909Z,90.70
2018-05-13T03:57:53.302Z,90.70
2018-05-13T04:00:20.342Z,90.60
2018-05-13T04:02:46.701Z,90.70
2018-05-13T04:05:13.818Z,90.40
2018-05-13T04:21:50.393Z,90.60
2018-05-13T04:24:16.670Z,90.80
2018-05-13T04:26:43.623Z,90.20
2018-05-13T04:29:10.691Z,89.60
2018-05-13T04:31:37.686Z,89.50
2018-05-13T04:34:03.898Z,89.50
2018-05-13T04:36:30.861Z,89.20
2018-05-13T04:38:57.055Z,89.20
2018-05-13T04:41:23.246Z,88.20
2018-05-13T04:43:49.513Z,88.40
2018-05-13T04:46:15.720Z,88.00
2018-05-13T04:48:41.943Z,88.40
2018-05-13T04:51:09.024Z,89.10
2018-05-13T04:53:35.150Z,89.00
2018-05-13T04:56:02.106Z,87.00
2018-05-13T04:58:28.397Z,87.00
2018-05-13T05:00:54.604Z,87.10
2018-05-13T05:03:20.829Z,86.70
2018-05-13T05:05:47.041Z,87.30
2018-05-13T05:08:13.271Z,86.90
2018-05-13T05:10:39.468Z,86.60
2018-05-13T05:13:05.682Z,87.50
2018-05-13T05:15:32.675Z,86.70
2018-05-13T05:17:58.868Z,86.00
2018-05-13T05:20:25.154Z,86.50
2018-05-13T05:22:51.355Z,88.20
2018-05-13T05:25:17.624Z,88.00
2018-05-13T05:27:43.828Z,86.60
2018-05-13T05:30:10.063Z,86.20
2018-05-13T05:32:36.256Z,83.20
2018-05-13T05:35:03.249Z,82.90
2018-05-13T05:37:29.526Z,82.90
2018-05-13T05:39:55.843Z,84.40
2018-05-13T05:42:22.066Z,84.00
2018-05-13T05:44:49.024Z,83.80
2018-05-13T05:47:15.254Z,83.70
2018-05-13T05:49:41.486Z,84.20
2018-05-13T05:52:07.838Z,83.10
2018-05-13T05:54:34.216Z,83.60
2018-05-13T05:57:00.519Z,84.80
2018-05-13T05:59:26.822Z,83.40
2018-05-13T06:01:53.885Z,83.80
2018-05-13T06:04:20.928Z,84.70
2018-05-13T06:06:47.258Z,84.60
2018-05-13T06:09:13.570Z,83.50
2018-05-13T06:11:39.883Z,82.70
2018-05-13T06:14:06.895Z,82.30
2018-05-13T06:16:33.210Z,82.30
2018-05-13T06:18:59.519Z,82.90
2018-05-13T06:21:25.864Z,82.70
2018-05-13T06:23:52.904Z,80.40
2018-05-13T06:26:19.337Z,80.30
2018-05-13T06:28:45.914Z,76.50
2018-05-13T06:31:13.014Z,69.40
2018-05-13T06:33:39.306Z,69.40
2018-05-13T06:36:05.630Z,65.90
2018-05-13T06:38:31.955Z,63.50
2018-05-13T06:40:58.284Z,63.20
2018-05-13T06:43:24.604Z,63.20
2018-05-13T06:45:51.017Z,63.40
2018-05-13T06:48:17.442Z,62.80
2018-05-13T06:50:44.549Z,60.70
2018-05-13T06:53:10.949Z,59.90
2018-05-13T06:55:37.271Z,61.00
2018-05-13T06:58:03.642Z,60.10
2018-05-13T07:00:30.016Z,59.30
2018-05-13T07:02:57.091Z,58.10
2018-05-13T07:05:23.451Z,58.00
2018-05-13T07:07:49.792Z,57.30
2018-05-13T07:10:16.319Z,57.10
2018-05-13T07:12:42.641Z,57.10
2018-05-13T07:15:08.946Z,58.30
2018-05-13T07:17:35.291Z,59.60
2018-05-13T07:20:01.643Z,56.20
2018-05-13T07:22:27.983Z,58.30
2018-05-13T07:24:54.418Z,56.60
2018-05-13T07:27:20.719Z,57.30
2018-05-13T07:29:47.791Z,56.50
2018-05-13T07:32:14.897Z,57.00
2018-05-13T07:34:41.311Z,56.90
2018-05-13T07:37:07.643Z,55.20
2018-05-13T07:39:34.721Z,56.00
2018-05-13T07:42:01.065Z,56.10
2018-05-13T07:44:27.376Z,57.90
2018-05-13T07:46:54.458Z,56.50
2018-05-13T07:49:20.741Z,56.50
2018-05-13T07:51:47.110Z,56.80
2018-05-13T07:54:13.385Z,53.60
2018-05-13T07:56:39.765Z,56.20
2018-05-13T07:59:06.083Z,53.50
2018-05-13T08:01:32.399Z,54.00
2018-05-13T08:03:59.555Z,54.60
2018-05-13T08:06:26.647Z,56.80
2018-05-13T08:08:52.963Z,56.90
2018-05-13T08:11:19.245Z,54.70
2018-05-13T08:13:46.416Z,52.60
2018-05-13T08:16:12.705Z,52.50
2018-05-13T08:18:40.257Z,53.00
2018-05-13T08:21:07.327Z,51.80
2018-05-13T08:23:33.650Z,51.80
2018-05-13T08:25:59.996Z,51.90
2018-05-13T08:28:26.471Z,51.00
2018-05-13T08:30:52.894Z,50.90
2018-05-13T08:33:19.460Z,51.10
2018-05-13T08:35:45.874Z,50.90
2018-05-13T08:38:12.142Z,50.30
2018-05-13T08:40:38.452Z,50.00
2018-05-13T08:43:04.749Z,51.00
2018-05-13T08:45:31.812Z,50.10
2018-05-13T08:47:58.799Z,50.70
2018-05-13T08:50:25.140Z,50.10
2018-05-13T08:52:51.623Z,51.10
2018-05-13T08:55:17.969Z,50.00
2018-05-13T08:57:44.303Z,49.50
2018-05-13T09:00:10.737Z,48.20
2018-05-13T09:02:37.083Z,48.20
2018-05-13T09:05:03.447Z,47.70
2018-05-13T09:07:29.779Z,47.00
2018-05-13T09:09:56.226Z,48.60
2018-05-13T09:12:22.529Z,49.90
2018-05-13T09:14:48.898Z,48.10
2018-05-13T09:17:15.279Z,47.90
2018-05-13T09:19:41.635Z,48.50
2018-05-13T09:22:08.681Z,49.30
2018-05-13T09:24:35.144Z,49.30
2018-05-13T09:27:02.177Z,47.60
2018-05-13T09:29:28.601Z,47.50
2018-05-13T09:31:55.073Z,49.40
2018-05-13T09:34:21.502Z,48.20
2018-05-13T09:36:47.908Z,48.70
2018-05-13T09:39:14.301Z,47.60
2018-05-13T09:41:40.627Z,47.30
2018-05-13T09:44:06.966Z,45.20
2018-05-13T09:46:33.284Z,45.30
2018-05-13T09:48:59.591Z,44.00
2018-05-13T09:51:26.923Z,38.80
2018-05-13T09:53:53.259Z,38.60
2018-05-13T09:56:19.664Z,38.90
2018-05-13T09:58:46.702Z,39.40
2018-05-13T10:01:13.076Z,39.40
2018-05-13T10:03:39.377Z,37.50
2018-05-13T10:06:05.723Z,38.60
2018-05-13T10:08:32.059Z,39.90
2018-05-13T10:10:59.099Z,38.50
2018-05-13T10:13:25.424Z,38.50
2018-05-13T10:15:51.745Z,38.00
2018-05-13T10:18:18.204Z,38.30
2018-05-13T10:20:44.641Z,37.80
2018-05-13T10:23:10.919Z,37.90
2018-05-13T10:25:37.816Z,38.50
2018-05-13T10:28:04.912Z,35.70
2018-05-13T10:30:32.235Z,35.70
2018-05-13T10:32:58.573Z,35.90
2018-05-13T10:35:25.072Z,39.80
2018-05-13T10:37:51.531Z,38.00
2018-05-13T10:40:17.888Z,37.40
2018-05-13T10:42:44.372Z,37.40
2018-05-13T10:45:11.488Z,35.80
2018-05-13T10:47:37.872Z,35.70
2018-05-13T10:50:04.232Z,36.80
2018-05-13T10:52:31.349Z,34.80
2018-05-13T10:54:57.700Z,34.80
2018-05-13T10:57:24.134Z,34.20
2018-05-13T10:59:50.533Z,35.20
2018-05-13T11:02:17.631Z,34.00
2018-05-13T11:04:44.036Z,34.00
2018-05-13T11:07:11.110Z,35.10
2018-05-13T11:09:37.463Z,35.10
2018-05-13T11:12:03.837Z,34.40
2018-05-13T11:14:30.185Z,34.50
2018-05-13T11:16:56.558Z,33.40
2018-05-13T11:19:22.928Z,32.70
2018-05-13T11:21:49.367Z,33.50
2018-05-13T11:24:15.689Z,33.80
2018-05-13T11:26:42.228Z,34.00
2018-05-13T11:29:08.487Z,33.10
2018-05-13T11:31:35.538Z,31.80
2018-05-13T11:34:01.830Z,31.80
2018-05-13T11:36:28.100Z,33.60
2018-05-13T11:38:54.545Z,32.90
2018-05-13T11:41:20.839Z,32.10
2018-05-13T11:43:47.254Z,33.40
2018-05-13T11:46:13.683Z,32.40
2018-05-13T11:48:40.052Z,32.40
2018-05-13T11:51:08.055Z,32.20
2018-05-13T11:53:34.435Z,32.20
2018-05-13T11:56:00.738Z,32.60
2018-05-13T11:58:27.825Z,32.20
2018-05-13T12:00:54.200Z,32.10
2018-05-13T12:03:20.550Z,32.20
2018-05-13T12:05:46.952Z,31.20
2018-05-13T12:08:13.297Z,33.00
2018-05-13T12:10:39.623Z,33.00
2018-05-13T12:13:05.955Z,31.40
2018-05-13T12:15:33.093Z,33.10
2018-05-13T12:17:59.404Z,33.10
2018-05-13T12:20:25.766Z,32.00
2018-05-13T12:22:52.099Z,33.10
2018-05-13T12:25:18.445Z,32.90
2018-05-13T12:27:44.805Z,33.80
2018-05-13T12:30:11.229Z,33.80
2018-05-13T12:32:37.504Z,33.50
2018-05-13T12:35:03.814Z,33.30
2018-05-13T12:37:30.147Z,32.60
2018-05-13T12:39:56.497Z,32.50
2018-05-13T12:42:22.872Z,32.70
2018-05-13T12:44:49.198Z,32.20
2018-05-13T12:47:15.606Z,31.20
2018-05-13T12:49:41.920Z,32.10
2018-05-13T12:52:08.274Z,32.40
2018-05-13T12:54:35.389Z,33.50
2018-05-13T12:57:01.774Z,33.40
2018-05-13T12:59:28.115Z,34.30
2018-05-13T13:01:55.242Z,35.30
2018-05-13T13:04:21.555Z,35.30
2018-05-13T13:06:48.640Z,36.20
2018-05-13T13:09:14.982Z,36.30
2018-05-13T13:11:41.445Z,36.00
2018-05-13T13:14:07.881Z,35.90
2018-05-13T13:16:34.266Z,37.50
2018-05-13T13:19:04.999Z,37.40
2018-05-13T13:21:32.036Z,38.10
2018-05-13T13:23:58.394Z,38.00
2018-05-13T13:26:25.588Z,39.50
2018-05-13T13:28:52.495Z,38.70
2018-05-13T13:31:18.839Z,38.70
2018-05-13T13:33:45.269Z,38.50
2018-05-13T13:36:11.593Z,39.50
2018-05-13T13:38:38.736Z,37.40
2018-05-13T13:41:06.268Z,37.30
2018-05-13T13:43:32.630Z,39.00
2018-05-13T13:45:59.040Z,38.70
2018-05-13T13:48:25.361Z,39.70
2018-05-13T13:50:51.838Z,39.30
2018-05-13T13:53:18.151Z,39.70
2018-05-13T13:55:44.453Z,40.20
2018-05-13T13:58:10.799Z,40.50
2018-05-13T14:00:37.338Z,40.50
2018-05-13T14:03:03.743Z,41.00
2018-05-13T14:05:30.129Z,41.00
2018-05-13T14:07:57.204Z,40.90
2018-05-13T14:10:24.327Z,41.90
2018-05-13T14:12:50.723Z,41.90
2018-05-13T14:15:17.834Z,42.60
2018-05-13T14:17:44.215Z,42.50
2018-05-13T14:20:11.369Z,42.50
2018-05-13T14:22:37.640Z,42.50
2018-05-13T14:25:03.971Z,41.30
2018-05-13T14:27:30.423Z,41.20
2018-05-13T14:29:56.775Z,39.40
2018-05-13T14:32:23.207Z,38.90
2018-05-13T14:34:49.578Z,38.10
2018-05-13T14:37:15.961Z,38.00
2018-05-13T14:39:42.292Z,37.90
2018-05-13T14:42:08.668Z,37.90
2018-05-13T14:44:35.732Z,37.20
2018-05-13T14:47:02.763Z,36.60
2018-05-13T14:49:29.113Z,36.60
2018-05-13T14:51:55.394Z,34.90
2018-05-13T14:54:21.707Z,35.50
2018-05-13T14:56:48.138Z,34.30
2018-05-13T14:59:15.166Z,30.80
2018-05-13T15:01:41.606Z,30.80
2018-05-13T15:04:07.979Z,31.60
2018-05-13T15:06:34.316Z,34.70
2018-05-13T15:09:00.650Z,31.40
2018-05-13T15:11:27.134Z,33.60
2018-05-13T15:13:53.498Z,33.30
2018-05-13T15:16:19.868Z,31.50
2018-05-13T15:18:46.676Z,33.20
2018-05-13T15:21:12.985Z,33.50
2018-05-13T15:23:39.394Z,32.20
2018-05-13T15:26:05.873Z,33.40
2018-05-13T15:28:32.295Z,32.00
2018-05-13T15:30:58.657Z,33.70
2018-05-13T15:33:25.027Z,32.50
2018-05-13T15:35:51.465Z,33.10
2018-05-13T15:38:17.819Z,32.80
2018-05-13T15:40:44.401Z,32.90
2018-05-13T15:43:11.580Z,30.60
2018-05-13T15:45:38.220Z,30.60
2018-05-13T15:48:04.694Z,29.70
2018-05-13T15:50:31.511Z,31.30
2018-05-13T15:52:58.372Z,31.50
2018-05-13T15:55:25.096Z,31.90
2018-05-13T15:57:52.275Z,31.30
2018-05-13T16:00:18.850Z,31.20
2018-05-13T16:02:46.155Z,31.70
2018-05-13T16:05:14.115Z,31.70
2018-05-13T16:07:40.798Z,31.80
2018-05-13T16:10:08.316Z,30.90
2018-05-13T16:12:36.040Z,29.40
2018-05-13T16:15:02.395Z,29.30
2018-05-13T16:17:29.171Z,30.00
2018-05-13T16:19:55.817Z,30.80
2018-05-13T16:22:22.535Z,31.50
2018-05-13T16:24:48.968Z,32.50
2018-05-13T16:27:15.300Z,33.00
2018-05-13T16:29:41.719Z,32.30
2018-05-13T16:32:08.125Z,32.60
2018-05-13T16:34:34.539Z,31.40
2018-05-13T16:37:01.580Z,30.30
2018-05-13T16:39:27.899Z,30.30
2018-05-13T16:41:54.278Z,31.40
2018-05-13T16:44:21.403Z,31.30
2018-05-13T16:46:47.760Z,31.40
2018-05-13T16:49:14.070Z,31.40
2018-05-13T16:51:40.463Z,33.10
2018-05-13T16:54:07.504Z,32.30
2018-05-13T16:56:33.847Z,32.20
2018-05-13T16:59:01.024Z,31.00
2018-05-13T17:01:27.366Z,30.90
2018-05-13T17:03:53.790Z,32.50
2018-05-13T17:06:21.170Z,31.60
2018-05-13T17:08:47.567Z,29.90
2018-05-13T17:11:13.898Z,33.10
2018-05-13T17:13:40.361Z,33.20
2018-05-13T17:16:06.664Z,32.30
2018-05-13T17:18:33.754Z,33.40
2018-05-13T17:21:00.153Z,33.40
2018-05-13T17:23:28.960Z,33.50
2018-05-13T17:25:55.297Z,32.10
2018-05-13T17:28:21.626Z,32.10
2018-05-13T17:30:47.943Z,33.70
2018-05-13T17:33:14.234Z,34.90
2018-05-13T17:35:40.649Z,35.50
2018-05-13T17:38:07.067Z,34.80
2018-05-13T17:40:33.453Z,35.00
2018-05-13T17:43:00.615Z,34.60
2018-05-13T17:45:26.980Z,34.60
2018-05-13T17:47:53.831Z,35.30
2018-05-13T17:50:20.414Z,34.60
2018-05-13T17:52:46.748Z,33.10
2018-05-13T17:55:13.198Z,35.80
2018-05-13T17:57:39.666Z,35.00
2018-05-13T18:00:05.911Z,32.20
2018-05-13T18:02:32.476Z,34.50
2018-05-13T18:04:58.719Z,34.80
2018-05-13T18:07:25.078Z,35.70
2018-05-13T18:09:51.335Z,36.80
2018-05-13T18:12:17.607Z,35.30
2018-05-13T18:14:44.057Z,36.80
2018-05-13T18:17:10.349Z,37.00
2018-05-13T18:19:36.745Z,36.40
2018-05-13T18:22:03.046Z,38.70
2018-05-13T18:24:29.441Z,39.20
2018-05-13T18:26:55.638Z,39.50
2018-05-13T18:29:22.698Z,38.50
2018-05-13T18:31:49.045Z,38.50
2018-05-13T18:34:16.071Z,39.70
2018-05-13T18:36:42.438Z,39.70
2018-05-13T18:39:08.826Z,40.10
2018-05-13T18:41:35.837Z,40.80
2018-05-13T18:44:02.164Z,40.70
2018-05-13T18:46:30.574Z,39.10
2018-05-13T18:48:56.932Z,37.70
2018-05-13T18:51:24.123Z,40.20
2018-05-13T18:53:50.513Z,40.20
2018-05-13T18:56:16.948Z,39.10
2018-05-13T18:58:43.249Z,39.40
2018-05-13T19:01:09.609Z,39.50
2018-05-13T19:03:35.958Z,40.60
2018-05-13T19:06:02.281Z,39.30
2018-05-13T19:08:28.658Z,41.40
2018-05-13T19:10:55.026Z,40.40
2018-05-13T19:13:21.411Z,41.70
2018-05-13T19:15:47.737Z,42.80
2018-05-13T19:18:14.763Z,41.60
2018-05-13T19:20:41.928Z,41.60
2018-05-13T19:23:08.278Z,41.50
2018-05-13T19:25:34.628Z,42.10
2018-05-13T19:28:01.006Z,42.50
2018-05-13T19:30:27.380Z,42.50
2018-05-13T19:32:53.738Z,44.30
2018-05-13T19:35:20.104Z,43.00
2018-05-13T19:37:46.479Z,43.20
2018-05-13T19:40:12.837Z,44.70
2018-05-13T19:42:39.203Z,43.80
2018-05-13T19:45:05.527Z,43.10
2018-05-13T19:47:31.915Z,43.80
2018-05-13T19:49:58.234Z,44.40
2018-05-13T19:52:24.567Z,43.80
2018-05-13T19:54:57.221Z,43.20
2018-05-13T19:57:23.815Z,43.80
2018-05-13T19:59:50.925Z,44.40
2018-05-13T20:02:17.567Z,44.20
2018-05-13T20:04:44.614Z,44.60
2018-05-13T20:07:10.967Z,44.50
2018-05-13T20:09:37.413Z,45.30
2018-05-13T20:12:03.774Z,45.20
2018-05-13T20:14:30.864Z,46.10
2018-05-13T20:16:57.269Z,46.10
2018-05-13T20:19:23.545Z,45.70
2018-05-13T20:21:49.944Z,48.60
2018-05-13T20:24:16.272Z,48.40
2018-05-13T20:26:42.670Z,47.20
2018-05-13T20:29:09.012Z,49.70
2018-05-13T20:31:36.067Z,47.30
2018-05-13T20:34:03.224Z,49.20
2018-05-13T20:36:30.279Z,47.90
2018-05-13T20:38:56.625Z,47.90
2018-05-13T20:41:23.732Z,47.60
2018-05-13T20:43:50.205Z,47.60
2018-05-13T20:46:16.644Z,47.80
2018-05-13T20:48:42.969Z,52.00
2018-05-13T20:51:09.322Z,51.90
2018-05-13T20:53:35.640Z,48.20
2018-05-13T20:56:02.021Z,48.10
2018-05-13T20:58:28.429Z,51.90
2018-05-13T21:00:54.861Z,50.00
2018-05-13T21:03:21.249Z,51.70
2018-05-13T21:05:47.592Z,49.80
2018-05-13T21:08:13.977Z,50.50
2018-05-13T21:10:41.055Z,51.90
2018-05-13T21:13:07.350Z,51.30
2018-05-13T21:15:33.691Z,50.30
2018-05-13T21:18:00.003Z,52.30
2018-05-13T21:20:26.410Z,52.90
2018-05-13T21:22:53.513Z,51.60
2018-05-13T21:25:19.826Z,51.50
2018-05-13T21:27:47.255Z,51.10
2018-05-13T21:30:13.569Z,51.10
2018-05-13T21:32:39.883Z,51.40
2018-05-13T21:35:06.963Z,52.60
2018-05-13T21:37:33.256Z,52.60
2018-05-13T21:39:59.609Z,51.00
2018-05-13T21:42:26.642Z,50.00
2018-05-13T21:44:52.954Z,50.00
2018-05-13T21:47:19.239Z,54.00
2018-05-13T21:49:45.536Z,51.80
2018-05-13T21:52:11.867Z,52.50
2018-05-13T21:54:38.274Z,54.00
2018-05-13T21:57:05.363Z,50.70
2018-05-13T21:59:32.375Z,51.70
2018-05-13T22:01:58.683Z,51.60
2018-05-13T22:04:24.961Z,52.80
2018-05-13T22:06:51.336Z,54.00
2018-05-13T22:09:18.499Z,55.60
2018-05-13T22:11:45.537Z,56.00
2018-05-13T22:14:12.594Z,56.40
2018-05-13T22:16:38.896Z,56.30
2018-05-13T22:19:05.230Z,56.20
2018-05-13T22:21:31.520Z,56.30
2018-05-13T22:23:57.960Z,56.90
2018-05-13T22:26:24.308Z,57.40
2018-05-13T22:28:50.602Z,57.20
2018-05-13T22:31:16.968Z,56.60
2018-05-13T22:33:43.292Z,56.00
2018-05-13T22:36:09.626Z,56.00
2018-05-13T22:38:35.973Z,56.00
2018-05-13T22:41:02.321Z,56.50
2018-05-13T22:43:28.693Z,57.60
2018-05-13T22:45:55.006Z,58.60
2018-05-13T22:48:21.398Z,57.20
2018-05-13T22:50:47.707Z,57.40
2018-05-13T22:53:14.138Z,58.30
2018-05-13T22:55:40.497Z,60.10
2018-05-13T22:58:06.831Z,60.90
2018-05-13T23:00:33.237Z,61.10
2018-05-13T23:02:59.534Z,62.00
2018-05-13T23:05:25.954Z,62.40
2018-05-13T23:07:52.199Z,60.90
2018-05-13T23:10:19.329Z,59.00
2018-05-13T23:12:46.431Z,58.80
2018-05-13T23:15:12.788Z,58.70
2018-05-13T23:17:39.080Z,59.50
2018-05-13T23:20:05.402Z,60.30
2018-05-13T23:22:33.777Z,62.60
2018-05-13T23:25:00.097Z,61.00
2018-05-13T23:27:26.467Z,60.20
2018-05-13T23:29:52.813Z,59.80
2018-05-13T23:32:19.183Z,60.70
2018-05-13T23:34:45.579Z,60.90
2018-05-13T23:37:11.952Z,60.70
2018-05-13T23:39:38.244Z,60.80
2018-05-13T23:42:05.411Z,61.70
2018-05-13T23:44:31.691Z,61.70
2018-05-13T23:46:58.017Z,62.40
2018-05-13T23:49:24.294Z,64.30
2018-05-13T23:51:50.658Z,67.90
2018-05-13T23:54:17.170Z,65.80
2018-05-13T23:56:43.581Z,68.60
